If you wish to contribute or participate in the discussions about articles you are invited to join SKYbrary as a registered user

 Actions

Comodoro Rivadavia/General Enrique Mosconi International Airport

From SKYbrary Wiki

SAVC
Airport
ICAO: SAVC – IATA: CRD
Summary
Name Comodoro Rivadavia/General Enrique Mosconi International Airport
Region South America and Caribbean
Territory Argentina AR.gif
Location Comodoro Rivadavia, Chubut
Serving Comodoro Rivadavia
Elevation 57.912 m
190 ft
190 ft57.912 m
Coordinates 45° 47' 11.53" S, 67° 27' 57.09" W
Runways
Designator Length Width Surface ROPS
7/25 2810 m9,219.16 ft
50 m164.042 ft
CON /


METAR
Observation SAVC 181900Z 25016G30KT 210V290 9999 SCT040 SCT200 12/M04 Q0988
Station Comodoro Rivadavia Aerodrome
Date/Time 18 September 2019 19:00:00
Wind direction 250°
Wind speed 16 kts
Lowest cloud amount scattered clouds
Temperature 12°C
Dew point
Humidity 32%
QNH 988 hPa
Weather condition n/a

General Enrique Mosconi International Airport is an international airport in the Chubut Province, Argentina serving Comodoro Rivadavia. The airfield is located 11 km5.94 nm
11,000 m
36,089.239 ft
of the city.

Maps

Terrain

Loading map...

Airport Layout

Loading map...


Accidents & Serious Incidents at or in vicinity of SAVC

None on SKYbrary